createdAt,value
2022-12-05T00:00:35.374Z,8.91
2022-12-05T00:01:38.138Z,7.48
2022-12-05T00:02:41.089Z,6.50
2022-12-05T00:03:44.040Z,8.35
2022-12-05T00:04:47.250Z,8.45
2022-12-05T00:05:50.153Z,9.97
2022-12-05T00:06:53.345Z,8.19
2022-12-05T00:07:56.275Z,9.46
2022-12-05T00:08:59.294Z,9.85
2022-12-05T00:10:02.263Z,7.32
2022-12-05T00:11:05.461Z,9.67
2022-12-05T00:12:08.553Z,9.15
2022-12-05T00:13:11.608Z,9.88
2022-12-05T00:14:14.584Z,10.19
2022-12-05T00:15:17.967Z,8.58
2022-12-05T00:16:21.332Z,8.93
2022-12-05T00:17:24.545Z,9.14
2022-12-05T00:18:27.727Z,11.33
2022-12-05T00:19:30.899Z,8.40
2022-12-05T00:20:33.981Z,8.72
2022-12-05T00:21:37.478Z,10.60
2022-12-05T00:22:40.681Z,10.53
2022-12-05T00:23:43.841Z,10.15
2022-12-05T00:24:46.908Z,10.15
2022-12-05T00:25:50.433Z,10.45
2022-12-05T00:26:53.589Z,8.73
2022-12-05T00:27:56.772Z,7.08
2022-12-05T00:29:00.274Z,7.88
2022-12-05T00:30:03.441Z,10.63
2022-12-05T00:31:07.444Z,8.41
2022-12-05T00:32:10.433Z,9.26
2022-12-05T00:33:13.502Z,8.66
2022-12-05T00:34:16.475Z,10.80
2022-12-05T00:35:19.664Z,9.95
2022-12-05T00:36:22.532Z,9.95
2022-12-05T00:37:25.621Z,8.16
2022-12-05T00:38:28.893Z,9.18
2022-12-05T00:39:32.588Z,8.97
2022-12-05T00:40:36.074Z,7.74
2022-12-05T00:41:39.050Z,9.56
2022-12-05T00:42:41.938Z,8.99
2022-12-05T00:43:45.314Z,10.18
2022-12-05T00:44:48.401Z,6.96
2022-12-05T00:45:51.790Z,7.86
2022-12-05T00:46:54.980Z,8.79
2022-12-05T00:47:57.937Z,10.81
2022-12-05T00:49:00.721Z,11.38
2022-12-05T00:50:03.497Z,7.09
2022-12-05T00:51:06.662Z,7.96
2022-12-05T00:52:09.741Z,8.22
2022-12-05T00:53:13.245Z,9.75
2022-12-05T00:54:16.311Z,11.04
2022-12-05T00:55:19.717Z,9.85
2022-12-05T00:56:22.877Z,10.27
2022-12-05T00:57:25.619Z,10.23
2022-12-05T00:58:28.528Z,10.54
2022-12-05T00:59:31.807Z,9.71
2022-12-05T01:00:34.896Z,8.98
2022-12-05T01:01:38.167Z,9.28
2022-12-05T01:02:41.734Z,6.74
2022-12-05T01:03:45.060Z,7.91
2022-12-05T01:04:48.159Z,9.05
2022-12-05T01:05:51.523Z,8.84
2022-12-05T01:06:54.697Z,9.48
2022-12-05T01:07:57.653Z,9.87
2022-12-05T01:09:00.879Z,8.91
2022-12-05T01:10:03.737Z,9.05
2022-12-05T01:11:06.612Z,7.69
2022-12-05T01:12:09.485Z,9.26
2022-12-05T01:13:12.385Z,8.42
2022-12-05T01:14:15.360Z,9.55
2022-12-05T01:15:18.214Z,10.20
2022-12-05T01:16:21.362Z,10.25
2022-12-05T01:17:24.990Z,8.74
2022-12-05T01:18:27.785Z,9.08
2022-12-05T01:19:30.833Z,12.56
2022-12-05T01:20:33.714Z,9.18
2022-12-05T01:21:36.588Z,8.39
2022-12-05T01:22:39.660Z,9.95
2022-12-05T01:23:42.654Z,9.49
2022-12-05T01:24:46.024Z,11.01
2022-12-05T01:25:49.016Z,11.31
2022-12-05T01:26:52.399Z,9.35
2022-12-05T01:27:55.792Z,8.63
2022-12-05T01:28:58.892Z,10.94
2022-12-05T01:30:01.836Z,10.48
2022-12-05T01:31:04.615Z,8.20
2022-12-05T01:32:07.454Z,8.13
2022-12-05T01:33:10.578Z,10.42
2022-12-05T01:34:13.433Z,11.64
2022-12-05T01:35:16.821Z,12.15
2022-12-05T01:36:20.010Z,8.88
2022-12-05T01:37:23.091Z,10.08
2022-12-05T01:38:25.953Z,11.28
2022-12-05T01:39:28.522Z,10.68
2022-12-05T01:40:31.709Z,11.48
2022-12-05T01:41:35.195Z,12.61
2022-12-05T01:42:38.589Z,8.49
2022-12-05T01:43:42.068Z,8.68
2022-12-05T01:44:45.452Z,9.19
2022-12-05T01:45:48.591Z,9.65
2022-12-05T01:46:51.889Z,8.35
2022-12-05T01:47:55.210Z,6.68
2022-12-05T01:48:58.710Z,9.28
2022-12-05T01:50:01.568Z,10.14
2022-12-05T01:51:04.449Z,9.54
2022-12-05T01:52:07.524Z,7.59
2022-12-05T01:53:10.712Z,8.69
2022-12-05T01:54:13.800Z,8.15
2022-12-05T01:55:16.552Z,9.72
2022-12-05T01:56:19.532Z,10.05
2022-12-05T01:57:22.827Z,10.68
2022-12-05T01:58:26.110Z,7.82
2022-12-05T01:59:29.602Z,9.45
2022-12-05T02:00:32.468Z,10.96
2022-12-05T02:01:35.875Z,9.72
2022-12-05T02:02:38.998Z,7.61
2022-12-05T02:03:41.910Z,9.18
2022-12-05T02:04:45.533Z,8.92
2022-12-05T02:05:48.673Z,7.36
2022-12-05T02:06:52.064Z,8.94
2022-12-05T02:07:55.116Z,9.34
2022-12-05T02:08:58.020Z,9.99
2022-12-05T02:10:01.118Z,11.35
2022-12-05T02:11:03.882Z,9.85
2022-12-05T02:12:06.955Z,8.09
2022-12-05T02:13:09.957Z,10.82
2022-12-05T02:14:12.811Z,8.37
2022-12-05T02:15:16.085Z,8.72
2022-12-05T02:16:19.882Z,9.27
2022-12-05T02:17:22.965Z,10.59
2022-12-05T02:18:26.244Z,9.12
2022-12-05T02:19:29.432Z,9.52
2022-12-05T02:20:33.021Z,9.31
2022-12-05T02:21:36.240Z,8.88
2022-12-05T02:22:39.484Z,9.64
2022-12-05T02:23:42.567Z,8.52
2022-12-05T02:24:45.548Z,9.49
2022-12-05T02:25:48.839Z,8.58
2022-12-05T02:26:51.910Z,12.35
2022-12-05T02:27:55.093Z,8.07
2022-12-05T02:28:58.073Z,9.29
2022-12-05T02:30:01.152Z,9.44
2022-12-05T02:31:04.369Z,9.87
2022-12-05T02:32:07.400Z,9.28
2022-12-05T02:33:10.175Z,9.46
2022-12-05T02:34:13.059Z,8.94
2022-12-05T02:35:16.157Z,9.37
2022-12-05T02:36:19.212Z,8.68
2022-12-05T02:37:21.996Z,8.02
2022-12-05T02:38:25.372Z,8.70
2022-12-05T02:39:28.680Z,7.83
2022-12-05T02:40:31.428Z,8.93
2022-12-05T02:41:34.421Z,8.45
2022-12-05T02:42:37.384Z,9.88
2022-12-05T02:43:40.361Z,9.02
2022-12-05T02:44:43.432Z,8.48
2022-12-05T02:45:47.096Z,7.48
2022-12-05T02:46:50.420Z,9.89
2022-12-05T02:47:53.907Z,7.52
2022-12-05T02:48:57.296Z,8.58
2022-12-05T02:50:00.802Z,9.43
2022-12-05T02:51:03.568Z,8.90
2022-12-05T02:52:06.732Z,9.29
2022-12-05T02:53:09.829Z,8.70
2022-12-05T02:54:13.005Z,8.90
2022-12-05T02:55:16.177Z,7.16
2022-12-05T02:56:18.967Z,6.75
2022-12-05T02:57:22.065Z,8.21
2022-12-05T02:58:24.910Z,7.40
2022-12-05T02:59:28.024Z,7.26
2022-12-05T03:00:31.686Z,8.04
2022-12-05T03:01:34.816Z,7.10
2022-12-05T03:02:38.063Z,9.41
2022-12-05T03:03:41.230Z,6.44
2022-12-05T03:04:44.431Z,7.22
2022-12-05T03:05:48.325Z,9.49
2022-12-05T03:06:51.483Z,8.77
2022-12-05T03:07:54.406Z,7.56
2022-12-05T03:08:57.241Z,8.87
2022-12-05T03:10:00.379Z,7.28
2022-12-05T03:11:03.591Z,9.30
2022-12-05T03:12:06.916Z,8.52
2022-12-05T03:13:13.859Z,6.95
2022-12-05T03:14:17.155Z,8.40
2022-12-05T03:15:20.330Z,8.09
2022-12-05T03:16:23.700Z,8.98
2022-12-05T03:17:26.685Z,8.31
2022-12-05T03:18:29.774Z,9.10
2022-12-05T03:19:33.149Z,9.33
2022-12-05T03:20:36.650Z,10.12
2022-12-05T03:21:40.448Z,8.71
2022-12-05T03:22:43.724Z,9.84
2022-12-05T03:23:47.210Z,8.95
2022-12-05T03:24:50.192Z,9.42
2022-12-05T03:25:53.160Z,8.38
2022-12-05T03:26:56.465Z,8.08
2022-12-05T03:27:59.425Z,6.68
2022-12-05T03:29:02.619Z,9.74
2022-12-05T03:30:05.283Z,7.95
2022-12-05T03:31:08.099Z,10.15
2022-12-05T03:32:11.153Z,8.85
2022-12-05T03:33:14.722Z,8.35
2022-12-05T03:34:18.214Z,7.66
2022-12-05T03:35:21.195Z,8.11
2022-12-05T03:36:24.173Z,9.52
2022-12-05T03:37:27.561Z,7.93
2022-12-05T03:38:30.734Z,9.72
2022-12-05T03:39:34.016Z,8.02
2022-12-05T03:40:37.101Z,9.29
2022-12-05T03:41:40.276Z,7.07
2022-12-05T03:42:43.460Z,7.60
2022-12-05T03:43:46.740Z,9.22
2022-12-05T03:44:49.617Z,8.27
2022-12-05T03:45:52.847Z,9.33
2022-12-05T03:46:56.114Z,10.18
2022-12-05T03:47:59.265Z,8.91
2022-12-05T03:49:02.547Z,8.82
2022-12-05T03:50:05.843Z,10.09
2022-12-05T03:51:08.656Z,9.59
2022-12-05T03:52:11.884Z,11.45
2022-12-05T03:53:20.063Z,8.25
2022-12-05T03:54:19.292Z,9.01
2022-12-05T03:55:22.353Z,6.74
2022-12-05T03:56:25.325Z,7.76
2022-12-05T03:57:28.532Z,8.78
2022-12-05T03:58:31.603Z,8.38
2022-12-05T03:59:34.547Z,10.25
2022-12-05T04:00:37.556Z,7.28
2022-12-05T04:01:40.627Z,7.85
2022-12-05T04:02:44.015Z,9.43
2022-12-05T04:03:47.029Z,9.51
2022-12-05T04:04:50.067Z,11.75
2022-12-05T04:05:53.360Z,9.24
2022-12-05T04:06:56.443Z,9.96
2022-12-05T04:08:00.567Z,8.29
2022-12-05T04:09:03.528Z,8.35
2022-12-05T04:10:06.411Z,8.52
2022-12-05T04:11:09.791Z,8.33
2022-12-05T04:12:12.870Z,10.46
2022-12-05T04:13:15.748Z,8.19
2022-12-05T04:14:19.021Z,8.03
2022-12-05T04:15:21.904Z,10.68
2022-12-05T04:16:25.204Z,9.40
2022-12-05T04:17:27.952Z,8.25
2022-12-05T04:18:30.926Z,7.88
2022-12-05T04:19:33.911Z,9.44
2022-12-05T04:20:36.803Z,9.85
2022-12-05T04:21:40.408Z,8.19
2022-12-05T04:22:43.541Z,10.18
2022-12-05T04:23:47.946Z,11.52
2022-12-05T04:24:50.932Z,9.15
2022-12-05T04:25:54.020Z,8.40
2022-12-05T04:26:57.199Z,9.23
2022-12-05T04:28:00.390Z,9.09
2022-12-05T04:29:03.565Z,11.28
2022-12-05T04:30:06.754Z,7.12
2022-12-05T04:31:09.991Z,11.63
2022-12-05T04:32:13.103Z,9.57
2022-12-05T04:33:16.393Z,8.36
2022-12-05T04:34:19.273Z,10.89
2022-12-05T04:35:22.036Z,11.22
2022-12-05T04:36:25.448Z,10.65
2022-12-05T04:37:28.512Z,10.62
2022-12-05T04:38:31.909Z,11.38
2022-12-05T04:39:35.499Z,10.38
2022-12-05T04:40:39.112Z,11.70
2022-12-05T04:41:42.568Z,12.26
2022-12-05T04:42:45.333Z,11.15
2022-12-05T04:43:48.421Z,11.42
2022-12-05T04:44:51.298Z,11.95
2022-12-05T04:45:54.059Z,11.90
2022-12-05T04:46:57.319Z,13.97
2022-12-05T04:48:00.762Z,13.98
2022-12-05T04:49:03.707Z,14.55
2022-12-05T04:50:06.485Z,10.68
2022-12-05T04:51:09.400Z,9.99
2022-12-05T04:52:12.646Z,12.31
2022-12-05T04:53:15.719Z,13.79
2022-12-05T04:54:18.798Z,12.59
2022-12-05T04:55:21.979Z,13.63
2022-12-05T04:56:24.966Z,11.11
2022-12-05T04:57:28.139Z,12.89
2022-12-05T04:58:31.216Z,11.15
2022-12-05T04:59:34.202Z,13.03
2022-12-05T05:00:37.481Z,13.68
2022-12-05T05:01:40.314Z,15.43
2022-12-05T05:02:44.715Z,12.55
2022-12-05T05:03:47.855Z,11.79
2022-12-05T05:04:50.612Z,12.62
2022-12-05T05:05:54.335Z,13.76
2022-12-05T05:06:56.988Z,13.21
2022-12-05T05:08:00.253Z,14.03
2022-12-05T05:09:03.273Z,14.42
2022-12-05T05:10:06.272Z,15.01
2022-12-05T05:11:09.029Z,17.48
2022-12-05T05:12:17.228Z,15.05
2022-12-05T05:13:16.076Z,13.40
2022-12-05T05:14:19.774Z,15.21
2022-12-05T05:15:22.956Z,16.93
2022-12-05T05:16:27.129Z,13.68
2022-12-05T05:17:37.377Z,14.02
2022-12-05T05:18:40.170Z,15.50
2022-12-05T05:19:43.250Z,13.65
2022-12-05T05:20:46.147Z,14.11
2022-12-05T05:21:48.813Z,13.36
2022-12-05T05:23:01.395Z,14.60
2022-12-05T05:24:04.174Z,14.56
2022-12-05T05:25:07.058Z,13.92
2022-12-05T05:26:10.469Z,17.63
2022-12-05T05:27:13.425Z,14.32
2022-12-05T05:28:16.184Z,15.68
2022-12-05T05:29:19.363Z,16.83
2022-12-05T05:30:22.560Z,15.16
2022-12-05T05:31:25.635Z,17.22
2022-12-05T05:32:28.613Z,14.47
2022-12-05T05:33:31.587Z,11.59
2022-12-05T05:34:35.178Z,18.79
2022-12-05T05:35:38.671Z,27.13
2022-12-05T05:36:41.740Z,17.74
2022-12-05T05:37:44.823Z,18.56
2022-12-05T05:38:48.307Z,18.72
2022-12-05T05:39:51.389Z,14.24
2022-12-05T05:40:54.463Z,16.15
2022-12-05T05:41:57.440Z,10.81
2022-12-05T05:43:01.052Z,11.90
2022-12-05T05:44:04.266Z,17.45
2022-12-05T05:45:07.710Z,16.38
2022-12-05T05:46:11.147Z,16.56
2022-12-05T05:47:14.283Z,11.44
2022-12-05T05:48:17.378Z,8.36
2022-12-05T05:49:20.426Z,9.12
2022-12-05T05:50:23.609Z,10.62
2022-12-05T05:51:27.010Z,11.75
2022-12-05T05:52:30.311Z,13.21
2022-12-05T05:53:33.569Z,14.52
2022-12-05T05:54:36.644Z,12.00
2022-12-05T05:55:39.743Z,18.25
2022-12-05T05:56:43.134Z,19.28
2022-12-05T05:57:47.845Z,17.21
2022-12-05T05:58:50.610Z,23.27
2022-12-05T05:59:53.593Z,20.75
2022-12-05T06:00:56.982Z,19.38
2022-12-05T06:02:00.255Z,23.75
2022-12-05T06:03:03.307Z,12.47
2022-12-05T06:04:06.571Z,11.09
2022-12-05T06:05:10.044Z,10.60
2022-12-05T06:06:13.295Z,9.54
2022-12-05T06:07:15.964Z,13.06
2022-12-05T06:08:19.292Z,14.03
2022-12-05T06:09:22.636Z,15.66
2022-12-05T06:10:26.426Z,14.52
2022-12-05T06:11:29.300Z,13.98
2022-12-05T06:12:32.296Z,10.22
2022-12-05T06:13:35.055Z,12.28
2022-12-05T06:14:37.846Z,15.98
2022-12-05T06:15:41.326Z,14.63
2022-12-05T06:16:44.395Z,14.08
2022-12-05T06:17:47.268Z,16.32
2022-12-05T06:18:50.159Z,13.27
2022-12-05T06:19:52.826Z,14.81
2022-12-05T06:20:55.785Z,15.90
2022-12-05T06:21:58.768Z,14.56
2022-12-05T06:23:02.186Z,12.14
2022-12-05T06:24:04.929Z,10.18
2022-12-05T06:25:08.012Z,15.20
2022-12-05T06:26:10.671Z,12.79
2022-12-05T06:27:13.750Z,11.39
2022-12-05T06:28:16.669Z,13.15
2022-12-05T06:29:24.019Z,14.15
2022-12-05T06:30:24.340Z,15.47
2022-12-05T06:31:27.770Z,15.06
2022-12-05T06:32:30.600Z,14.27
2022-12-05T06:33:34.018Z,15.52
2022-12-05T06:34:36.746Z,15.21
2022-12-05T06:35:40.244Z,17.08
2022-12-05T06:36:43.324Z,19.00
2022-12-05T06:37:46.390Z,16.90
2022-12-05T06:38:49.191Z,17.22
2022-12-05T06:39:51.938Z,19.64
2022-12-05T06:40:54.697Z,18.32
2022-12-05T06:41:58.404Z,20.49
2022-12-05T06:43:01.432Z,23.60
2022-12-05T06:44:04.769Z,21.56
2022-12-05T06:45:08.152Z,19.26
2022-12-05T06:46:11.444Z,20.32
2022-12-05T06:47:15.236Z,18.02
2022-12-05T06:48:18.006Z,18.69
2022-12-05T06:49:29.933Z,15.88
2022-12-05T06:50:28.705Z,16.99
2022-12-05T06:51:31.754Z,14.87
2022-12-05T06:52:35.546Z,16.48
2022-12-05T06:53:39.237Z,14.35
2022-12-05T06:54:42.529Z,19.99
2022-12-05T06:55:45.310Z,17.11
2022-12-05T06:56:48.289Z,18.79
2022-12-05T06:57:51.790Z,17.28
2022-12-05T06:58:54.740Z,17.62
2022-12-05T06:59:58.064Z,19.07
2022-12-05T07:01:01.379Z,18.22
2022-12-05T07:02:04.621Z,15.73
2022-12-05T07:03:07.624Z,16.37
2022-12-05T07:04:10.565Z,13.04
2022-12-05T07:05:14.352Z,16.28
2022-12-05T07:06:20.491Z,13.18
2022-12-05T07:07:23.275Z,13.16
2022-12-05T07:08:26.449Z,10.62
2022-12-05T07:09:29.938Z,13.50
2022-12-05T07:10:33.126Z,15.28
2022-12-05T07:11:35.904Z,11.97
2022-12-05T07:12:38.966Z,11.49
2022-12-05T07:13:42.050Z,13.37
2022-12-05T07:14:48.240Z,12.52
2022-12-05T07:15:50.553Z,10.51
2022-12-05T07:16:53.715Z,11.17
2022-12-05T07:17:57.557Z,9.96
2022-12-05T07:19:00.830Z,13.53
2022-12-05T07:20:03.610Z,10.78
2022-12-05T07:21:14.507Z,13.58
2022-12-05T07:22:15.680Z,11.46
2022-12-05T07:23:15.691Z,10.54
2022-12-05T07:24:18.575Z,11.68
2022-12-05T07:25:21.762Z,12.78
2022-12-05T07:26:24.854Z,13.25
2022-12-05T07:27:28.502Z,12.75
2022-12-05T07:28:31.820Z,12.55
2022-12-05T07:29:35.191Z,10.51
2022-12-05T07:30:38.291Z,11.94
2022-12-05T07:31:41.823Z,10.49
2022-12-05T07:32:45.067Z,12.69
2022-12-05T07:33:48.155Z,12.50
2022-12-05T07:34:55.320Z,12.58
2022-12-05T07:35:56.245Z,12.93
2022-12-05T07:36:59.741Z,13.06
2022-12-05T07:38:02.600Z,13.08
2022-12-05T07:39:05.896Z,13.06
2022-12-05T07:40:08.764Z,12.45
2022-12-05T07:41:13.647Z,13.02
2022-12-05T07:42:16.664Z,14.14
2022-12-05T07:43:19.648Z,14.00
2022-12-05T07:44:22.828Z,13.28
2022-12-05T07:45:26.268Z,13.53
2022-12-05T07:46:29.133Z,14.15
2022-12-05T07:47:32.414Z,14.65
2022-12-05T07:48:35.354Z,9.75
2022-12-05T07:49:38.210Z,14.62
2022-12-05T07:50:41.397Z,15.09
2022-12-05T07:51:44.385Z,16.37
2022-12-05T07:52:47.565Z,14.07
2022-12-05T07:53:50.865Z,19.02
2022-12-05T07:54:54.437Z,14.80
2022-12-05T07:55:57.444Z,17.61
2022-12-05T07:57:01.199Z,16.79
2022-12-05T07:58:04.687Z,19.32
2022-12-05T07:59:08.081Z,16.76
2022-12-05T08:00:10.873Z,15.40
2022-12-05T08:01:14.074Z,17.08
2022-12-05T08:02:17.287Z,16.48
2022-12-05T08:03:20.391Z,16.04
2022-12-05T08:04:24.595Z,16.92
2022-12-05T08:05:27.699Z,16.45
2022-12-05T08:06:30.883Z,16.74
2022-12-05T08:07:36.025Z,17.33
2022-12-05T08:08:39.285Z,15.69
2022-12-05T08:09:42.573Z,16.08
2022-12-05T08:10:46.051Z,16.21
2022-12-05T08:11:52.559Z,18.38
2022-12-05T08:12:53.839Z,15.38
2022-12-05T08:13:57.252Z,15.28
2022-12-05T08:15:00.314Z,20.24
2022-12-05T08:16:02.801Z,23.36
2022-12-05T08:17:05.730Z,16.65
2022-12-05T08:18:08.428Z,16.70
2022-12-05T08:19:11.724Z,16.47
2022-12-05T08:20:14.788Z,18.73
2022-12-05T08:21:18.388Z,17.49
2022-12-05T08:22:21.367Z,15.08
2022-12-05T08:23:24.431Z,20.88
2022-12-05T08:24:27.425Z,23.68
2022-12-05T08:25:30.803Z,23.77
2022-12-05T08:26:34.294Z,21.36
2022-12-05T08:27:37.264Z,22.43
2022-12-05T08:28:41.079Z,23.20
2022-12-05T08:29:44.656Z,21.84
2022-12-05T08:30:47.493Z,19.70
2022-12-05T08:31:50.306Z,23.54
2022-12-05T08:32:53.288Z,25.00
2022-12-05T08:33:59.255Z,19.50
2022-12-05T08:35:02.419Z,19.75
2022-12-05T08:36:05.285Z,21.86
2022-12-05T08:37:08.163Z,21.71
2022-12-05T08:38:11.192Z,19.44
2022-12-05T08:39:14.645Z,23.20
2022-12-05T08:40:17.729Z,26.00
2022-12-05T08:41:21.299Z,21.42
2022-12-05T08:42:24.365Z,21.76
2022-12-05T08:43:27.567Z,20.26
2022-12-05T08:44:30.218Z,23.26
2022-12-05T08:45:33.412Z,21.70
2022-12-05T08:46:36.411Z,22.62
2022-12-05T08:47:39.568Z,24.14
2022-12-05T08:48:42.965Z,25.82
2022-12-05T08:49:46.131Z,27.31
2022-12-05T08:50:49.549Z,26.39
2022-12-05T08:51:52.608Z,23.97
2022-12-05T08:52:56.808Z,28.37
2022-12-05T08:53:59.724Z,28.79
2022-12-05T08:55:03.268Z,29.85
2022-12-05T08:56:06.574Z,29.04
2022-12-05T08:57:09.943Z,30.62
2022-12-05T08:58:13.252Z,27.59
2022-12-05T08:59:17.020Z,30.88
2022-12-05T09:00:20.106Z,30.65
2022-12-05T09:01:23.327Z,27.26
2022-12-05T09:02:26.131Z,21.71
2022-12-05T09:03:29.249Z,22.55
2022-12-05T09:04:32.021Z,24.10
2022-12-05T09:05:35.100Z,25.17
2022-12-05T09:06:37.766Z,26.70
2022-12-05T09:07:41.356Z,20.94
2022-12-05T09:08:44.348Z,26.09
2022-12-05T09:09:47.317Z,23.16
2022-12-05T09:10:50.601Z,18.26
2022-12-05T09:11:53.766Z,23.35
2022-12-05T09:12:56.869Z,24.54
2022-12-05T09:13:59.822Z,24.39
2022-12-05T09:15:03.232Z,22.82
2022-12-05T09:16:06.472Z,21.04
2022-12-05T09:17:09.575Z,26.96
2022-12-05T09:18:12.781Z,26.03
2022-12-05T09:19:15.672Z,28.06
2022-12-05T09:20:18.441Z,24.09
2022-12-05T09:21:21.385Z,23.96
2022-12-05T09:22:28.360Z,29.18
2022-12-05T09:23:31.353Z,24.24
2022-12-05T09:24:34.410Z,25.79
2022-12-05T09:25:37.692Z,24.86
2022-12-05T09:26:41.440Z,23.75
2022-12-05T09:27:44.985Z,24.39
2022-12-05T09:28:49.016Z,27.90
2022-12-05T09:29:51.956Z,33.72
2022-12-05T09:30:55.390Z,28.03
2022-12-05T09:31:58.438Z,29.91
2022-12-05T09:33:01.409Z,29.62
2022-12-05T09:34:04.912Z,29.39
2022-12-05T09:35:07.767Z,31.64
2022-12-05T09:36:11.052Z,31.75
2022-12-05T09:37:37.384Z,29.26
2022-12-05T09:38:18.744Z,34.79
2022-12-05T09:39:21.837Z,32.08
2022-12-05T09:40:24.805Z,36.01
2022-12-05T09:41:27.609Z,32.16
2022-12-05T09:42:30.750Z,31.79
2022-12-05T09:43:33.936Z,28.85
2022-12-05T09:44:37.224Z,28.27
2022-12-05T09:45:40.501Z,32.98
2022-12-05T09:46:43.732Z,29.47
2022-12-05T09:47:46.763Z,29.37
2022-12-05T09:48:50.156Z,25.31
2022-12-05T09:49:53.127Z,24.14
2022-12-05T09:50:56.107Z,28.81
2022-12-05T09:51:59.492Z,26.79
2022-12-05T09:53:03.086Z,29.31
2022-12-05T09:54:14.996Z,32.22
2022-12-05T09:55:17.737Z,13.64
2022-12-05T09:56:21.144Z,22.07
2022-12-05T09:57:27.811Z,26.75
2022-12-05T09:58:28.728Z,30.77
2022-12-05T09:59:31.999Z,27.35
2022-12-05T10:00:35.402Z,27.41
2022-12-05T10:01:38.667Z,30.67
2022-12-05T10:02:42.172Z,33.29
2022-12-05T10:03:44.944Z,36.13
2022-12-05T10:04:48.825Z,32.95
2022-12-05T10:05:51.524Z,29.52
2022-12-05T10:06:54.788Z,23.99
2022-12-05T10:07:58.013Z,23.18
2022-12-05T10:09:01.060Z,21.71
2022-12-05T10:10:03.865Z,17.75
2022-12-05T10:11:06.723Z,19.73
2022-12-05T10:12:09.474Z,20.60
2022-12-05T10:13:12.564Z,22.74
2022-12-05T10:14:15.626Z,23.53
2022-12-05T10:15:18.704Z,22.48
2022-12-05T10:16:22.048Z,21.93
2022-12-05T10:17:25.108Z,26.04
2022-12-05T10:18:28.044Z,18.92
2022-12-05T10:19:31.024Z,21.98
2022-12-05T10:20:34.127Z,19.05
2022-12-05T10:21:36.879Z,19.04
2022-12-05T10:22:40.469Z,23.35
2022-12-05T10:23:57.653Z,22.92
2022-12-05T10:38:27.200Z,29.78
2022-12-05T10:39:30.566Z,29.47
2022-12-05T10:40:33.642Z,31.62
2022-12-05T10:41:37.265Z,33.41
2022-12-05T10:42:41.234Z,40.47
2022-12-05T10:43:44.537Z,32.35
2022-12-05T10:44:48.001Z,34.33
2022-12-05T10:45:50.973Z,34.39
2022-12-05T10:46:54.820Z,36.53
2022-12-05T10:47:57.794Z,39.74
2022-12-05T10:49:01.031Z,38.38
2022-12-05T10:50:03.803Z,39.92
2022-12-05T10:51:07.110Z,34.63
2022-12-05T10:52:10.573Z,36.44
2022-12-05T10:53:13.872Z,44.17
2022-12-05T10:54:16.994Z,49.32
2022-12-05T10:55:20.001Z,43.28
2022-12-05T10:56:30.129Z,50.02
2022-12-05T10:57:28.161Z,58.51
2022-12-05T10:58:30.911Z,47.92
2022-12-05T10:59:33.980Z,39.79
2022-12-05T11:00:37.152Z,48.09
2022-12-05T11:01:40.704Z,46.05
2022-12-05T11:02:44.766Z,45.23
2022-12-05T11:03:47.431Z,47.01
2022-12-05T11:04:51.087Z,42.40
2022-12-05T11:05:54.836Z,46.77
2022-12-05T11:06:57.901Z,41.99
2022-12-05T11:08:00.909Z,34.29
2022-12-05T11:09:05.180Z,36.80
2022-12-05T11:10:08.569Z,35.93
2022-12-05T11:11:11.756Z,38.29
2022-12-05T11:12:14.733Z,35.32
2022-12-05T11:13:17.807Z,37.92
2022-12-05T11:14:20.578Z,39.77
2022-12-05T11:15:23.660Z,38.31
2022-12-05T11:16:26.882Z,35.25
2022-12-05T11:17:29.907Z,34.23
2022-12-05T11:18:32.889Z,37.01
2022-12-05T11:19:35.781Z,29.78
2022-12-05T11:20:38.539Z,30.11
2022-12-05T11:21:41.328Z,33.29
2022-12-05T11:22:48.677Z,37.60
2022-12-05T11:23:50.145Z,36.74
2022-12-05T11:24:52.903Z,40.26
2022-12-05T11:25:55.879Z,41.82
2022-12-05T11:26:58.550Z,39.27
2022-12-05T11:28:02.024Z,41.81
2022-12-05T11:29:05.007Z,41.91
2022-12-05T11:30:07.888Z,45.36
2022-12-05T11:31:10.899Z,48.51
2022-12-05T11:32:13.945Z,44.80
2022-12-05T11:33:16.922Z,48.72
2022-12-05T11:34:19.794Z,52.59
2022-12-05T11:35:22.674Z,56.58
2022-12-05T11:36:25.969Z,56.85
2022-12-05T11:37:29.045Z,53.21
2022-12-05T11:38:32.012Z,62.52
2022-12-05T11:39:35.408Z,62.65
2022-12-05T11:40:38.927Z,60.97
2022-12-05T11:41:41.567Z,60.26
2022-12-05T11:42:44.334Z,64.92
2022-12-05T11:43:47.413Z,70.97
2022-12-05T11:44:50.500Z,71.01
2022-12-05T11:45:53.603Z,59.05
2022-12-05T11:46:56.653Z,69.94
2022-12-05T11:47:59.545Z,65.84
2022-12-05T11:49:02.525Z,73.47
2022-12-05T11:50:05.381Z,77.88
2022-12-05T11:51:08.355Z,82.42
2022-12-05T11:52:11.654Z,76.59
2022-12-05T11:53:14.515Z,85.11
2022-12-05T11:54:30.394Z,75.52
2022-12-05T11:55:22.556Z,80.47
2022-12-05T11:56:28.468Z,74.91
2022-12-05T11:57:31.750Z,86.79
2022-12-05T11:58:35.227Z,90.62
2022-12-05T11:59:38.619Z,86.85
2022-12-05T12:00:42.830Z,83.09
2022-12-05T12:01:45.591Z,75.72
2022-12-05T12:02:48.414Z,76.39
2022-12-05T12:03:51.626Z,75.12
2022-12-05T12:04:54.831Z,77.15
2022-12-05T12:05:58.326Z,72.83
2022-12-05T12:07:01.311Z,79.88
2022-12-05T12:08:04.531Z,79.60
2022-12-05T12:09:07.768Z,73.31
2022-12-05T12:10:11.050Z,81.00
2022-12-05T12:11:14.335Z,74.41
2022-12-05T12:12:17.008Z,78.45
2022-12-05T12:13:19.891Z,70.75
2022-12-05T12:14:22.757Z,73.50
2022-12-05T12:15:26.012Z,70.54
2022-12-05T12:16:29.383Z,71.12
2022-12-05T12:17:32.490Z,76.79
2022-12-05T12:18:35.688Z,69.07
2022-12-05T12:19:38.685Z,66.49
2022-12-05T12:20:41.438Z,59.32
2022-12-05T12:21:44.936Z,60.98
2022-12-05T12:22:48.320Z,65.76
2022-12-05T12:23:51.342Z,62.16
2022-12-05T12:24:54.483Z,69.28
2022-12-05T12:25:57.351Z,66.22
2022-12-05T12:27:00.632Z,65.67
2022-12-05T12:28:04.608Z,75.61
2022-12-05T12:29:07.914Z,67.23
2022-12-05T12:30:11.412Z,75.28
2022-12-05T12:31:14.834Z,73.43
2022-12-05T12:32:18.384Z,69.54
2022-12-05T12:33:26.882Z,76.96
2022-12-05T12:34:25.990Z,80.21
2022-12-05T12:35:29.164Z,86.26
2022-12-05T12:36:32.049Z,75.90
2022-12-05T12:37:35.219Z,81.08
2022-12-05T12:38:38.300Z,85.90
2022-12-05T12:39:41.271Z,87.45
2022-12-05T12:40:44.253Z,81.84
2022-12-05T12:41:47.329Z,91.16
2022-12-05T12:42:50.506Z,88.32
2022-12-05T12:43:54.550Z,87.65
2022-12-05T12:44:58.381Z,90.68
2022-12-05T12:46:05.378Z,91.97
2022-12-05T12:47:06.630Z,92.71
2022-12-05T12:48:09.804Z,87.01
2022-12-05T12:49:12.675Z,84.32
2022-12-05T12:50:15.351Z,84.78
2022-12-05T12:51:18.021Z,88.16
2022-12-05T12:52:20.893Z,83.19
2022-12-05T12:53:23.869Z,90.67
2022-12-05T12:54:47.340Z,93.28
2022-12-05T12:55:31.345Z,86.96
2022-12-05T12:56:34.430Z,88.67
2022-12-05T12:57:38.037Z,86.00
2022-12-05T12:58:41.106Z,75.65
2022-12-05T12:59:43.987Z,71.46
2022-12-05T13:00:47.123Z,80.33
2022-12-05T13:01:50.251Z,81.76
2022-12-05T13:02:53.070Z,78.85
2022-12-05T13:03:56.000Z,74.82
2022-12-05T13:04:59.301Z,77.53
2022-12-05T13:06:02.259Z,71.08
2022-12-05T13:07:05.230Z,74.19
2022-12-05T13:08:08.501Z,79.22
2022-12-05T13:09:11.387Z,75.89
2022-12-05T13:10:14.358Z,76.63
2022-12-05T13:11:17.364Z,68.02
2022-12-05T13:12:20.175Z,70.37
2022-12-05T13:13:22.882Z,76.12
2022-12-05T13:14:26.185Z,69.64
2022-12-05T13:15:29.166Z,75.54
2022-12-05T13:16:32.499Z,66.22
2022-12-05T13:17:35.822Z,66.76
2022-12-05T13:18:46.500Z,69.07
2022-12-05T13:19:49.961Z,68.11
2022-12-05T13:20:53.552Z,67.61
2022-12-05T13:21:56.543Z,64.82
2022-12-05T13:23:04.705Z,71.96
2022-12-05T13:24:05.146Z,75.35
2022-12-05T13:25:09.370Z,66.04
2022-12-05T13:26:12.861Z,61.01
2022-12-05T13:27:15.845Z,69.20
2022-12-05T13:28:22.806Z,64.01
2022-12-05T13:29:23.012Z,66.82
2022-12-05T13:30:25.772Z,65.44
2022-12-05T13:31:29.316Z,65.95
2022-12-05T13:32:31.942Z,62.65
2022-12-05T13:33:35.221Z,63.79
2022-12-05T13:34:38.315Z,71.54
2022-12-05T13:35:41.497Z,65.05
2022-12-05T13:36:44.464Z,67.39
2022-12-05T13:37:47.645Z,67.37
2022-12-05T13:38:50.408Z,58.38
2022-12-05T13:39:53.487Z,52.69
2022-12-05T13:40:56.868Z,55.40
2022-12-05T13:42:00.575Z,56.12
2022-12-05T13:43:03.550Z,58.92
2022-12-05T13:44:07.175Z,57.55
2022-12-05T13:45:10.027Z,52.62
2022-12-05T13:46:13.452Z,56.24
2022-12-05T13:47:16.279Z,54.97
2022-12-05T13:48:19.152Z,51.48
2022-12-05T13:49:22.132Z,50.48
2022-12-05T13:50:25.549Z,53.78
2022-12-05T13:51:28.894Z,53.15
2022-12-05T13:52:31.896Z,51.61
2022-12-05T13:53:34.953Z,50.69
2022-12-05T13:54:37.853Z,48.54
2022-12-05T13:55:40.826Z,48.93